sensor_id;sensor_type;location;lat;lon;timestamp;pressure;altitude;pressure_sealevel;temperature;humidity
41706;BME280;27385;51.096;17.190;2023-01-27T00:01:17;100621.27;;;0.66;95.30
41706;BME280;27385;51.096;17.190;2023-01-27T00:03:49;100617.64;;;0.68;95.41
41706;BME280;27385;51.096;17.190;2023-01-27T00:06:20;100618.41;;;0.69;95.43
41706;BME280;27385;51.096;17.190;2023-01-27T00:08:51;100618.41;;;0.70;95.34
41706;BME280;27385;51.096;17.190;2023-01-27T00:11:21;100619.34;;;0.71;95.33
41706;BME280;27385;51.096;17.190;2023-01-27T00:14:10;100617.21;;;0.74;95.40
41706;BME280;27385;51.096;17.190;2023-01-27T00:16:41;100614.47;;;0.74;95.36
41706;BME280;27385;51.096;17.190;2023-01-27T00:19:12;100615.09;;;0.73;95.30
41706;BME280;27385;51.096;17.190;2023-01-27T00:21:42;100616.27;;;0.74;95.38
41706;BME280;27385;51.096;17.190;2023-01-27T00:24:32;100611.94;;;0.76;95.41
41706;BME280;27385;51.096;17.190;2023-01-27T00:27:07;100612.00;;;0.77;95.44
41706;BME280;27385;51.096;17.190;2023-01-27T00:29:39;100613.23;;;0.80;95.48
41706;BME280;27385;51.096;17.190;2023-01-27T00:32:10;100615.27;;;0.81;95.43
41706;BME280;27385;51.096;17.190;2023-01-27T00:34:58;100611.44;;;0.79;95.40
41706;BME280;27385;51.096;17.190;2023-01-27T00:37:29;100613.25;;;0.78;95.38
41706;BME280;27385;51.096;17.190;2023-01-27T00:40:00;100621.58;;;0.79;95.37
41706;BME280;27385;51.096;17.190;2023-01-27T00:42:31;100622.73;;;0.79;95.40
41706;BME280;27385;51.096;17.190;2023-01-27T00:45:02;100626.56;;;0.82;95.52
41706;BME280;27385;51.096;17.190;2023-01-27T00:47:51;100630.95;;;0.85;95.67
41706;BME280;27385;51.096;17.190;2023-01-27T00:50:22;100633.61;;;0.87;95.68
41706;BME280;27385;51.096;17.190;2023-01-27T00:52:54;100634.06;;;0.88;95.60
41706;BME280;27385;51.096;17.190;2023-01-27T00:55:27;100631.80;;;0.87;95.56
41706;BME280;27385;51.096;17.190;2023-01-27T00:57:59;100633.44;;;0.89;95.57
41706;BME280;27385;51.096;17.190;2023-01-27T01:00:30;100637.34;;;0.90;95.63
41706;BME280;27385;51.096;17.190;2023-01-27T01:03:01;100638.14;;;0.90;95.50
41706;BME280;27385;51.096;17.190;2023-01-27T01:05:32;100640.96;;;0.89;95.41
41706;BME280;27385;51.096;17.190;2023-01-27T01:08:03;100640.73;;;0.89;95.56
41706;BME280;27385;51.096;17.190;2023-01-27T01:10:35;100640.73;;;0.89;95.55
41706;BME280;27385;51.096;17.190;2023-01-27T01:13:06;100639.56;;;0.88;95.49
41706;BME280;27385;51.096;17.190;2023-01-27T01:15:40;100641.45;;;0.89;95.59
41706;BME280;27385;51.096;17.190;2023-01-27T01:18:11;100637.35;;;0.90;95.63
41706;BME280;27385;51.096;17.190;2023-01-27T01:20:43;100630.90;;;0.90;95.68
41706;BME280;27385;51.096;17.190;2023-01-27T01:23:15;100632.47;;;0.91;95.68
41706;BME280;27385;51.096;17.190;2023-01-27T01:25:53;100626.83;;;0.91;95.67
41706;BME280;27385;51.096;17.190;2023-01-27T01:28:25;100627.60;;;0.91;95.62
41706;BME280;27385;51.096;17.190;2023-01-27T01:30:58;100627.74;;;0.92;95.67
41706;BME280;27385;51.096;17.190;2023-01-27T01:33:33;100623.50;;;0.93;95.69
41706;BME280;27385;51.096;17.190;2023-01-27T01:36:09;100622.27;;;0.93;95.58
41706;BME280;27385;51.096;17.190;2023-01-27T01:38:41;100624.05;;;0.95;95.63
41706;BME280;27385;51.096;17.190;2023-01-27T01:41:15;100624.19;;;0.96;95.72
41706;BME280;27385;51.096;17.190;2023-01-27T01:43:46;100624.41;;;0.98;95.75
41706;BME280;27385;51.096;17.190;2023-01-27T01:46:18;100621.88;;;1.00;95.73
41706;BME280;27385;51.096;17.190;2023-01-27T01:48:51;100621.63;;;1.02;95.66
41706;BME280;27385;51.096;17.190;2023-01-27T01:51:26;100625.31;;;1.02;95.60
41706;BME280;27385;51.096;17.190;2023-01-27T01:54:00;100623.18;;;1.04;95.66
41706;BME280;27385;51.096;17.190;2023-01-27T01:56:36;100622.63;;;1.05;95.64
41706;BME280;27385;51.096;17.190;2023-01-27T01:59:13;100622.92;;;1.06;95.62
41706;BME280;27385;51.096;17.190;2023-01-27T02:01:46;100623.44;;;1.03;95.39
41706;BME280;27385;51.096;17.190;2023-01-27T02:04:20;100625.66;;;0.98;95.43
41706;BME280;27385;51.096;17.190;2023-01-27T02:06:58;100629.08;;;0.94;95.45
41706;BME280;27385;51.096;17.190;2023-01-27T02:09:30;100631.06;;;0.90;95.60
41706;BME280;27385;51.096;17.190;2023-01-27T02:12:01;100632.00;;;0.90;95.75
41706;BME280;27385;51.096;17.190;2023-01-27T02:14:33;100633.10;;;0.93;95.87
41706;BME280;27385;51.096;17.190;2023-01-27T02:17:04;100633.79;;;0.94;95.94
41706;BME280;27385;51.096;17.190;2023-01-27T02:19:43;100632.68;;;0.95;95.90
41706;BME280;27385;51.096;17.190;2023-01-27T02:22:23;100631.58;;;0.95;95.89
41706;BME280;27385;51.096;17.190;2023-01-27T02:25:02;100627.51;;;0.94;95.75
41706;BME280;27385;51.096;17.190;2023-01-27T02:27:37;100633.24;;;0.92;95.83
41706;BME280;27385;51.096;17.190;2023-01-27T02:30:10;100634.37;;;0.89;95.83
41706;BME280;27385;51.096;17.190;2023-01-27T02:32:41;100636.58;;;0.88;95.96
41706;BME280;27385;51.096;17.190;2023-01-27T02:35:18;100639.89;;;0.87;96.03
41706;BME280;27385;51.096;17.190;2023-01-27T02:37:51;100639.41;;;0.89;96.12
41706;BME280;27385;51.096;17.190;2023-01-27T02:40:24;100638.84;;;0.92;96.21
41706;BME280;27385;51.096;17.190;2023-01-27T02:42:57;100636.14;;;0.95;96.33
41706;BME280;27385;51.096;17.190;2023-01-27T02:45:27;100634.01;;;0.97;96.30
41706;BME280;27385;51.096;17.190;2023-01-27T02:47:58;100633.27;;;1.00;96.32
41706;BME280;27385;51.096;17.190;2023-01-27T02:50:29;100630.11;;;1.02;96.30
41706;BME280;27385;51.096;17.190;2023-01-27T02:53:00;100633.78;;;1.04;96.33
41706;BME280;27385;51.096;17.190;2023-01-27T02:55:31;100629.08;;;1.03;96.13
41706;BME280;27385;51.096;17.190;2023-01-27T02:58:02;100631.13;;;1.02;96.13
41706;BME280;27385;51.096;17.190;2023-01-27T03:00:33;100632.40;;;1.01;96.19
41706;BME280;27385;51.096;17.190;2023-01-27T03:03:04;100635.61;;;1.02;96.28
41706;BME280;27385;51.096;17.190;2023-01-27T03:05:35;100633.47;;;1.04;96.34
41706;BME280;27385;51.096;17.190;2023-01-27T03:08:06;100633.78;;;1.04;96.32
41706;BME280;27385;51.096;17.190;2023-01-27T03:10:37;100638.80;;;1.05;96.30
41706;BME280;27385;51.096;17.190;2023-01-27T03:13:08;100634.63;;;1.05;96.12
41706;BME280;27385;51.096;17.190;2023-01-27T03:15:39;100638.02;;;1.05;96.10
41706;BME280;27385;51.096;17.190;2023-01-27T03:18:27;100640.20;;;1.06;96.15
41706;BME280;27385;51.096;17.190;2023-01-27T03:21:03;100637.23;;;1.05;96.03
41706;BME280;27385;51.096;17.190;2023-01-27T03:23:34;100632.45;;;1.04;96.03
41706;BME280;27385;51.096;17.190;2023-01-27T03:26:08;100634.52;;;1.03;96.07
41706;BME280;27385;51.096;17.190;2023-01-27T03:28:39;100637.49;;;1.02;96.02
41706;BME280;27385;51.096;17.190;2023-01-27T03:31:11;100635.21;;;1.02;96.08
41706;BME280;27385;51.096;17.190;2023-01-27T03:33:47;100632.40;;;1.01;96.24
41706;BME280;27385;51.096;17.190;2023-01-27T03:36:18;100630.51;;;1.02;96.20
41706;BME280;27385;51.096;17.190;2023-01-27T03:39:07;100627.67;;;1.02;96.18
41706;BME280;27385;51.096;17.190;2023-01-27T03:41:57;100628.63;;;1.01;96.12
41706;BME280;27385;51.096;17.190;2023-01-27T03:44:45;100632.73;;;1.01;96.25
41706;BME280;27385;51.096;17.190;2023-01-27T03:47:34;100629.83;;;0.99;96.15
41706;BME280;27385;51.096;17.190;2023-01-27T03:50:07;100627.09;;;0.99;96.24
41706;BME280;27385;51.096;17.190;2023-01-27T03:52:50;100630.07;;;0.98;96.26
41706;BME280;27385;51.096;17.190;2023-01-27T03:55:33;100630.87;;;0.97;96.42
41706;BME280;27385;51.096;17.190;2023-01-27T03:58:07;100629.68;;;0.97;96.36
41706;BME280;27385;51.096;17.190;2023-01-27T04:00:48;100632.38;;;0.94;96.47
41706;BME280;27385;51.096;17.190;2023-01-27T04:03:20;100626.59;;;0.91;96.49
41706;BME280;27385;51.096;17.190;2023-01-27T04:06:10;100624.23;;;0.90;96.69
41706;BME280;27385;51.096;17.190;2023-01-27T04:08:59;100625.71;;;0.92;96.79
41706;BME280;27385;51.096;17.190;2023-01-27T04:11:32;100622.48;;;0.93;96.84
41706;BME280;27385;51.096;17.190;2023-01-27T04:14:21;100623.82;;;0.94;96.93
41706;BME280;27385;51.096;17.190;2023-01-27T04:16:54;100622.41;;;0.90;96.85
41706;BME280;27385;51.096;17.190;2023-01-27T04:19:26;100627.54;;;0.91;96.99
41706;BME280;27385;51.096;17.190;2023-01-27T04:21:58;100628.54;;;0.92;96.99
41706;BME280;27385;51.096;17.190;2023-01-27T04:24:29;100629.81;;;0.91;96.99
41706;BME280;27385;51.096;17.190;2023-01-27T04:27:02;100630.98;;;0.90;96.98
41706;BME280;27385;51.096;17.190;2023-01-27T04:29:35;100632.58;;;0.88;97.01
41706;BME280;27385;51.096;17.190;2023-01-27T04:32:08;100633.05;;;0.88;97.07
41706;BME280;27385;51.096;17.190;2023-01-27T04:34:40;100634.13;;;0.91;97.32
41706;BME280;27385;51.096;17.190;2023-01-27T04:37:11;100634.19;;;0.93;97.35
41706;BME280;27385;51.096;17.190;2023-01-27T04:39:42;100633.79;;;0.94;97.31
41706;BME280;27385;51.096;17.190;2023-01-27T04:42:14;100632.09;;;0.92;97.32
41706;BME280;27385;51.096;17.190;2023-01-27T04:44:45;100633.83;;;0.91;97.35
41706;BME280;27385;51.096;17.190;2023-01-27T04:47:15;100631.30;;;0.91;97.60
41706;BME280;27385;51.096;17.190;2023-01-27T04:49:46;100631.53;;;0.93;97.59
41706;BME280;27385;51.096;17.190;2023-01-27T04:52:17;100629.08;;;0.93;97.67
41706;BME280;27385;51.096;17.190;2023-01-27T04:54:47;100634.27;;;0.94;97.65
41706;BME280;27385;51.096;17.190;2023-01-27T04:57:18;100632.78;;;0.92;97.59
41706;BME280;27385;51.096;17.190;2023-01-27T04:59:49;100636.00;;;0.92;97.60
41706;BME280;27385;51.096;17.190;2023-01-27T05:02:20;100637.57;;;0.93;97.73
41706;BME280;27385;51.096;17.190;2023-01-27T05:04:51;100633.79;;;0.95;97.85
41706;BME280;27385;51.096;17.190;2023-01-27T05:07:21;100638.52;;;0.94;97.70
41706;BME280;27385;51.096;17.190;2023-01-27T05:09:52;100640.89;;;0.91;97.74
41706;BME280;27385;51.096;17.190;2023-01-27T05:12:23;100641.52;;;0.89;97.86
41706;BME280;27385;51.096;17.190;2023-01-27T05:14:54;100649.05;;;0.90;97.90
41706;BME280;27385;51.096;17.190;2023-01-27T05:17:25;100647.96;;;0.89;97.98
41706;BME280;27385;51.096;17.190;2023-01-27T05:19:59;100653.06;;;0.89;97.93
41706;BME280;27385;51.096;17.190;2023-01-27T05:22:32;100658.30;;;0.92;98.01
41706;BME280;27385;51.096;17.190;2023-01-27T05:25:03;100660.19;;;0.93;98.04
41706;BME280;27385;51.096;17.190;2023-01-27T05:27:34;100667.48;;;0.94;98.03
41706;BME280;27385;51.096;17.190;2023-01-27T05:30:07;100664.50;;;0.94;98.01
41706;BME280;27385;51.096;17.190;2023-01-27T05:32:38;100668.97;;;0.96;98.05
41706;BME280;27385;51.096;17.190;2023-01-27T05:35:10;100669.58;;;0.96;98.05
41706;BME280;27385;51.096;17.190;2023-01-27T05:37:40;100669.50;;;0.98;98.04
41706;BME280;27385;51.096;17.190;2023-01-27T05:40:13;100669.64;;;1.00;98.01
41706;BME280;27385;51.096;17.190;2023-01-27T05:42:44;100672.01;;;0.99;97.95
41706;BME280;27385;51.096;17.190;2023-01-27T05:45:15;100675.05;;;0.99;98.00
41706;BME280;27385;51.096;17.190;2023-01-27T05:47:49;100675.76;;;1.00;97.91
41706;BME280;27385;51.096;17.190;2023-01-27T05:50:20;100678.98;;;1.00;97.92
41706;BME280;27385;51.096;17.190;2023-01-27T05:52:51;100681.56;;;1.02;97.94
41706;BME280;27385;51.096;17.190;2023-01-27T05:55:22;100677.70;;;1.03;97.96
41706;BME280;27385;51.096;17.190;2023-01-27T05:57:54;100679.65;;;1.05;97.92
41706;BME280;27385;51.096;17.190;2023-01-27T06:00:26;100680.17;;;1.08;98.03
41706;BME280;27385;51.096;17.190;2023-01-27T06:02:57;100686.69;;;1.11;97.95
41706;BME280;27385;51.096;17.190;2023-01-27T06:05:28;100685.17;;;1.12;97.98
41706;BME280;27385;51.096;17.190;2023-01-27T06:07:59;100684.17;;;1.11;97.89
41706;BME280;27385;51.096;17.190;2023-01-27T06:10:30;100681.89;;;1.11;97.93
41706;BME280;27385;51.096;17.190;2023-01-27T06:13:01;100686.22;;;1.11;97.94
41706;BME280;27385;51.096;17.190;2023-01-27T06:15:32;100691.86;;;1.11;97.92
41706;BME280;27385;51.096;17.190;2023-01-27T06:18:03;100696.41;;;1.10;97.90
41706;BME280;27385;51.096;17.190;2023-01-27T06:20:34;100701.84;;;1.10;97.97
41706;BME280;27385;51.096;17.190;2023-01-27T06:23:05;100699.33;;;1.11;98.01
41706;BME280;27385;51.096;17.190;2023-01-27T06:25:40;100696.83;;;1.10;97.94
41706;BME280;27385;51.096;17.190;2023-01-27T06:28:12;100696.94;;;1.05;97.83
41706;BME280;27385;51.096;17.190;2023-01-27T06:30:44;100698.60;;;1.04;98.00
41706;BME280;27385;51.096;17.190;2023-01-27T06:33:15;100701.50;;;1.05;98.09
41706;BME280;27385;51.096;17.190;2023-01-27T06:35:46;100704.00;;;1.06;98.16
41706;BME280;27385;51.096;17.190;2023-01-27T06:38:17;100705.48;;;1.07;98.26
41706;BME280;27385;51.096;17.190;2023-01-27T06:40:48;100710.95;;;1.09;98.30
41706;BME280;27385;51.096;17.190;2023-01-27T06:43:19;100715.13;;;1.11;98.44
41706;BME280;27385;51.096;17.190;2023-01-27T06:45:51;100715.73;;;1.14;98.52
41706;BME280;27385;51.096;17.190;2023-01-27T06:48:22;100720.36;;;1.14;98.32
41706;BME280;27385;51.096;17.190;2023-01-27T06:50:54;100718.42;;;1.11;98.38
41706;BME280;27385;51.096;17.190;2023-01-27T06:53:26;100719.71;;;1.06;98.32
41706;BME280;27385;51.096;17.190;2023-01-27T06:55:57;100714.85;;;1.05;98.51
41706;BME280;27385;51.096;17.190;2023-01-27T06:58:29;100711.31;;;1.04;98.57
41706;BME280;27385;51.096;17.190;2023-01-27T07:01:01;100713.36;;;1.03;98.66
41706;BME280;27385;51.096;17.190;2023-01-27T07:03:33;100714.48;;;1.02;98.83
41706;BME280;27385;51.096;17.190;2023-01-27T07:06:05;100707.24;;;1.02;98.88
41706;BME280;27385;51.096;17.190;2023-01-27T07:08:36;100707.87;;;1.03;98.86
41706;BME280;27385;51.096;17.190;2023-01-27T07:11:07;100706.69;;;1.02;98.91
41706;BME280;27385;51.096;17.190;2023-01-27T07:13:37;100710.47;;;1.01;99.02
41706;BME280;27385;51.096;17.190;2023-01-27T07:16:09;100708.50;;;1.02;99.06
41706;BME280;27385;51.096;17.190;2023-01-27T07:18:40;100711.15;;;1.05;99.19
41706;BME280;27385;51.096;17.190;2023-01-27T07:21:10;100712.41;;;1.05;99.13
41706;BME280;27385;51.096;17.190;2023-01-27T07:23:41;100709.27;;;1.05;99.08
41706;BME280;27385;51.096;17.190;2023-01-27T07:26:12;100718.86;;;1.05;99.20
41706;BME280;27385;51.096;17.190;2023-01-27T07:28:43;100715.97;;;1.03;99.22
41706;BME280;27385;51.096;17.190;2023-01-27T07:31:14;100718.14;;;1.05;99.37
41706;BME280;27385;51.096;17.190;2023-01-27T07:33:44;100722.22;;;1.06;99.34
41706;BME280;27385;51.096;17.190;2023-01-27T07:36:15;100724.41;;;1.07;99.34
41706;BME280;27385;51.096;17.190;2023-01-27T07:38:49;100728.95;;;1.09;99.37
41706;BME280;27385;51.096;17.190;2023-01-27T07:41:20;100732.16;;;1.11;99.36
41706;BME280;27385;51.096;17.190;2023-01-27T07:43:51;100738.98;;;1.13;99.41
41706;BME280;27385;51.096;17.190;2023-01-27T07:46:22;100739.91;;;1.15;99.40
41706;BME280;27385;51.096;17.190;2023-01-27T07:48:53;100738.66;;;1.16;99.38
41706;BME280;27385;51.096;17.190;2023-01-27T07:51:24;100739.61;;;1.15;99.30
41706;BME280;27385;51.096;17.190;2023-01-27T07:53:55;100738.60;;;1.13;99.27
41706;BME280;27385;51.096;17.190;2023-01-27T07:56:26;100737.66;;;1.12;99.46
41706;BME280;27385;51.096;17.190;2023-01-27T07:58:57;100741.66;;;1.14;99.51
41706;BME280;27385;51.096;17.190;2023-01-27T08:01:28;100741.80;;;1.16;99.61
41706;BME280;27385;51.096;17.190;2023-01-27T08:04:00;100740.61;;;1.17;99.51
41706;BME280;27385;51.096;17.190;2023-01-27T08:06:31;100741.40;;;1.18;99.30
41706;BME280;27385;51.096;17.190;2023-01-27T08:09:02;100742.32;;;1.20;99.33
41706;BME280;27385;51.096;17.190;2023-01-27T08:11:33;100735.26;;;1.19;99.13
41706;BME280;27385;51.096;17.190;2023-01-27T08:14:04;100743.51;;;1.20;99.27
41706;BME280;27385;51.096;17.190;2023-01-27T08:16:35;100742.94;;;1.20;99.25
41706;BME280;27385;51.096;17.190;2023-01-27T08:19:06;100742.16;;;1.21;99.15
41706;BME280;27385;51.096;17.190;2023-01-27T08:21:37;100741.77;;;1.21;99.14
41706;BME280;27385;51.096;17.190;2023-01-27T08:24:09;100742.94;;;1.21;99.20
41706;BME280;27385;51.096;17.190;2023-01-27T08:26:41;100748.42;;;1.22;99.25
41706;BME280;27385;51.096;17.190;2023-01-27T08:29:12;100749.05;;;1.24;99.22
41706;BME280;27385;51.096;17.190;2023-01-27T08:31:43;100751.09;;;1.25;99.12
41706;BME280;27385;51.096;17.190;2023-01-27T08:34:14;100753.76;;;1.27;99.06
41706;BME280;27385;51.096;17.190;2023-01-27T08:36:45;100755.23;;;1.26;99.05
41706;BME280;27385;51.096;17.190;2023-01-27T08:39:16;100756.95;;;1.27;99.14
41706;BME280;27385;51.096;17.190;2023-01-27T08:41:47;100758.85;;;1.26;99.02
41706;BME280;27385;51.096;17.190;2023-01-27T08:44:18;100760.90;;;1.25;98.98
41706;BME280;27385;51.096;17.190;2023-01-27T08:46:50;100763.19;;;1.24;99.00
41706;BME280;27385;51.096;17.190;2023-01-27T08:49:21;100762.95;;;1.24;99.05
41706;BME280;27385;51.096;17.190;2023-01-27T08:51:51;100763.89;;;1.24;99.18
41706;BME280;27385;51.096;17.190;2023-01-27T08:54:22;100775.05;;;1.26;99.16
41706;BME280;27385;51.096;17.190;2023-01-27T08:56:53;100772.39;;;1.25;99.09
41706;BME280;27385;51.096;17.190;2023-01-27T08:59:24;100769.55;;;1.24;99.19
41706;BME280;27385;51.096;17.190;2023-01-27T09:01:55;100766.50;;;1.23;98.94
41706;BME280;27385;51.096;17.190;2023-01-27T09:04:26;100769.10;;;1.22;99.03
41706;BME280;27385;51.096;17.190;2023-01-27T09:06:58;100769.11;;;1.22;99.04
41706;BME280;27385;51.096;17.190;2023-01-27T09:09:29;100769.97;;;1.22;99.21
41706;BME280;27385;51.096;17.190;2023-01-27T09:12:00;100774.04;;;1.23;99.21
41706;BME280;27385;51.096;17.190;2023-01-27T09:14:31;100774.27;;;1.23;99.21
41706;BME280;27385;51.096;17.190;2023-01-27T09:17:02;100779.22;;;1.24;99.24
41706;BME280;27385;51.096;17.190;2023-01-27T09:19:33;100778.28;;;1.25;99.26
41706;BME280;27385;51.096;17.190;2023-01-27T09:22:04;100778.41;;;1.27;99.28
41706;BME280;27385;51.096;17.190;2023-01-27T09:24:35;100781.33;;;1.27;99.35
41706;BME280;27385;51.096;17.190;2023-01-27T09:27:06;100784.85;;;1.28;99.34
41706;BME280;27385;51.096;17.190;2023-01-27T09:29:37;100790.22;;;1.26;99.03
41706;BME280;27385;51.096;17.190;2023-01-27T09:32:09;100792.34;;;1.24;99.00
41706;BME280;27385;51.096;17.190;2023-01-27T09:34:41;100800.52;;;1.24;99.13
41706;BME280;27385;51.096;17.190;2023-01-27T09:37:13;100801.45;;;1.26;99.15
41706;BME280;27385;51.096;17.190;2023-01-27T09:39:49;100804.84;;;1.25;99.06
41706;BME280;27385;51.096;17.190;2023-01-27T09:42:43;100803.17;;;1.25;98.94
41706;BME280;27385;51.096;17.190;2023-01-27T09:45:35;100806.16;;;1.26;99.13
41706;BME280;27385;51.096;17.190;2023-01-27T09:48:22;100811.83;;;1.25;99.12
41706;BME280;27385;51.096;17.190;2023-01-27T09:51:00;100808.75;;;1.27;99.17
41706;BME280;27385;51.096;17.190;2023-01-27T09:53:48;100810.70;;;1.28;99.09
41706;BME280;27385;51.096;17.190;2023-01-27T09:56:34;100809.46;;;1.26;98.93
41706;BME280;27385;51.096;17.190;2023-01-27T09:59:19;100807.11;;;1.24;98.95
41706;BME280;27385;51.096;17.190;2023-01-27T10:01:59;100807.98;;;1.26;98.99
41706;BME280;27385;51.096;17.190;2023-01-27T10:04:46;100804.91;;;1.26;99.00
41706;BME280;27385;51.096;17.190;2023-01-27T10:07:37;100805.52;;;1.26;98.93
41706;BME280;27385;51.096;17.190;2023-01-27T10:10:21;100801.14;;;1.25;98.87
41706;BME280;27385;51.096;17.190;2023-01-27T10:13:16;100798.39;;;1.26;99.09
41706;BME280;27385;51.096;17.190;2023-01-27T10:16:00;100800.27;;;1.27;99.07
41706;BME280;27385;51.096;17.190;2023-01-27T10:18:48;100804.83;;;1.25;98.78
41706;BME280;27385;51.096;17.190;2023-01-27T10:21:29;100800.49;;;1.26;99.09
41706;BME280;27385;51.096;17.190;2023-01-27T10:24:09;100804.58;;;1.28;99.09
41706;BME280;27385;51.096;17.190;2023-01-27T10:26:50;100807.17;;;1.28;98.96
41706;BME280;27385;51.096;17.190;2023-01-27T10:29:24;100805.92;;;1.27;99.00
41706;BME280;27385;51.096;17.190;2023-01-27T10:31:58;100809.60;;;1.28;98.89
41706;BME280;27385;51.096;17.190;2023-01-27T10:34:35;100808.37;;;1.26;98.75
41706;BME280;27385;51.096;17.190;2023-01-27T10:37:18;100802.95;;;1.24;98.87
41706;BME280;27385;51.096;17.190;2023-01-27T10:39:59;100804.77;;;1.24;98.73
41706;BME280;27385;51.096;17.190;2023-01-27T10:42:37;100804.38;;;1.23;98.78
41706;BME280;27385;51.096;17.190;2023-01-27T10:45:19;100804.85;;;1.21;98.76
41706;BME280;27385;51.096;17.190;2023-01-27T10:48:04;100808.23;;;1.21;98.79
41706;BME280;27385;51.096;17.190;2023-01-27T10:50:42;100814.53;;;1.20;98.88
41706;BME280;27385;51.096;17.190;2023-01-27T10:53:18;100815.14;;;1.23;99.13
41706;BME280;27385;51.096;17.190;2023-01-27T10:55:57;100811.42;;;1.26;99.07
41706;BME280;27385;51.096;17.190;2023-01-27T10:58:41;100812.14;;;1.26;98.78
41706;BME280;27385;51.096;17.190;2023-01-27T11:01:18;100808.60;;;1.24;98.71
41706;BME280;27385;51.096;17.190;2023-01-27T11:03:53;100806.25;;;1.25;98.78
41706;BME280;27385;51.096;17.190;2023-01-27T11:06:29;100809.47;;;1.25;98.63
41706;BME280;27385;51.096;17.190;2023-01-27T11:09:09;100807.90;;;1.26;98.66
41706;BME280;27385;51.096;17.190;2023-01-27T11:11:42;100807.80;;;1.27;98.67
41706;BME280;27385;51.096;17.190;2023-01-27T11:14:19;100809.79;;;1.25;98.52
41706;BME280;27385;51.096;17.190;2023-01-27T11:16:55;100805.60;;;1.27;98.84
41706;BME280;27385;51.096;17.190;2023-01-27T11:19:39;100810.16;;;1.28;98.66
41706;BME280;27385;51.096;17.190;2023-01-27T11:22:18;100807.16;;;1.29;98.70
41706;BME280;27385;51.096;17.190;2023-01-27T11:24:56;100810.15;;;1.28;98.44
41706;BME280;27385;51.096;17.190;2023-01-27T11:27:45;100804.11;;;1.27;98.60
41706;BME280;27385;51.096;17.190;2023-01-27T11:30:26;100800.11;;;1.28;98.59
41706;BME280;27385;51.096;17.190;2023-01-27T11:33:05;100796.33;;;1.28;98.49
41706;BME280;27385;51.096;17.190;2023-01-27T11:35:39;100795.41;;;1.26;98.40
41706;BME280;27385;51.096;17.190;2023-01-27T11:38:15;100796.83;;;1.23;98.67
41706;BME280;27385;51.096;17.190;2023-01-27T11:40:49;100794.55;;;1.23;98.72
41706;BME280;27385;51.096;17.190;2023-01-27T11:43:23;100798.18;;;1.21;98.66
41706;BME280;27385;51.096;17.190;2023-01-27T11:46:00;100796.45;;;1.20;98.65
41706;BME280;27385;51.096;17.190;2023-01-27T11:48:37;100803.15;;;1.19;98.75
41706;BME280;27385;51.096;17.190;2023-01-27T11:51:16;100804.27;;;1.17;98.61
41706;BME280;27385;51.096;17.190;2023-01-27T11:54:01;100798.84;;;1.16;98.88
41706;BME280;27385;51.096;17.190;2023-01-27T11:56:36;100800.48;;;1.17;98.70
41706;BME280;27385;51.096;17.190;2023-01-27T11:59:12;100796.88;;;1.15;98.54
41706;BME280;27385;51.096;17.190;2023-01-27T12:01:48;100794.77;;;1.15;98.55
41706;BME280;27385;51.096;17.190;2023-01-27T12:04:23;100795.23;;;1.17;98.73
41706;BME280;27385;51.096;17.190;2023-01-27T12:07:03;100798.20;;;1.19;98.68
41706;BME280;27385;51.096;17.190;2023-01-27T12:09:37;100793.23;;;1.21;98.78
41706;BME280;27385;51.096;17.190;2023-01-27T12:12:20;100792.98;;;1.23;98.52
41706;BME280;27385;51.096;17.190;2023-01-27T12:14:52;100792.02;;;1.25;98.55
41706;BME280;27385;51.096;17.190;2023-01-27T12:17:40;100790.92;;;1.25;98.44
41706;BME280;27385;51.096;17.190;2023-01-27T12:20:27;100790.52;;;1.26;98.55
41706;BME280;27385;51.096;17.190;2023-01-27T12:23:02;100787.71;;;1.23;98.34
41706;BME280;27385;51.096;17.190;2023-01-27T12:25:42;100788.20;;;1.20;98.23
41706;BME280;27385;51.096;17.190;2023-01-27T12:28:33;100785.09;;;1.17;98.20
41706;BME280;27385;51.096;17.190;2023-01-27T12:31:10;100782.73;;;1.18;98.38
41706;BME280;27385;51.096;17.190;2023-01-27T12:33:44;100781.17;;;1.15;98.25
41706;BME280;27385;51.096;17.190;2023-01-27T12:36:17;100782.98;;;1.15;98.40
41706;BME280;27385;51.096;17.190;2023-01-27T12:38:52;100784.14;;;1.18;98.70
41706;BME280;27385;51.096;17.190;2023-01-27T12:41:27;100781.23;;;1.17;98.35
41706;BME280;27385;51.096;17.190;2023-01-27T12:44:14;100780.00;;;1.14;98.34
41706;BME280;27385;51.096;17.190;2023-01-27T12:46:58;100779.47;;;1.09;98.30
41706;BME280;27385;51.096;17.190;2023-01-27T12:49:35;100779.33;;;1.08;98.37
41706;BME280;27385;51.096;17.190;2023-01-27T12:52:08;100776.27;;;1.07;98.56
41706;BME280;27385;51.096;17.190;2023-01-27T12:54:46;100784.48;;;1.10;98.71
41706;BME280;27385;51.096;17.190;2023-01-27T12:57:20;100785.67;;;1.11;98.82
41706;BME280;27385;51.096;17.190;2023-01-27T12:59:53;100793.77;;;1.12;98.76
41706;BME280;27385;51.096;17.190;2023-01-27T13:02:26;100791.40;;;1.11;98.46
41706;BME280;27385;51.096;17.190;2023-01-27T13:05:03;100790.46;;;1.11;98.67
41706;BME280;27385;51.096;17.190;2023-01-27T13:07:41;100789.19;;;1.13;98.75
41706;BME280;27385;51.096;17.190;2023-01-27T13:10:20;100793.77;;;1.10;98.46
41706;BME280;27385;51.096;17.190;2023-01-27T13:12:53;100799.90;;;1.06;98.44
41706;BME280;27385;51.096;17.190;2023-01-27T13:15:27;100803.30;;;1.06;98.61
41706;BME280;27385;51.096;17.190;2023-01-27T13:18:10;100803.77;;;1.07;98.72
41706;BME280;27385;51.096;17.190;2023-01-27T13:20:44;100810.52;;;1.08;98.74
41706;BME280;27385;51.096;17.190;2023-01-27T13:23:19;100811.75;;;1.09;98.77
41706;BME280;27385;51.096;17.190;2023-01-27T13:25:53;100813.31;;;1.12;98.83
41706;BME280;27385;51.096;17.190;2023-01-27T13:28:29;100815.91;;;1.13;98.76